sensor_id;sensor_type;location;lat;lon;timestamp;pressure;altitude;pressure_sealevel;temperature;humidity
62725;BME280;49026;52.600;4.694;2023-05-29T00:00:33;102575.81;;;9.13;57.50
62725;BME280;49026;52.600;4.694;2023-05-29T00:02:58;102576.69;;;9.10;58.63
62725;BME280;49026;52.600;4.694;2023-05-29T00:05:24;102574.97;;;9.06;58.10
62725;BME280;49026;52.600;4.694;2023-05-29T00:07:49;102573.22;;;9.03;57.85
62725;BME280;49026;52.600;4.694;2023-05-29T00:10:15;102579.38;;;9.01;57.86
62725;BME280;49026;52.600;4.694;2023-05-29T00:12:41;102583.78;;;8.97;58.00
62725;BME280;49026;52.600;4.694;2023-05-29T00:15:06;102580.28;;;8.94;59.01
62725;BME280;49026;52.600;4.694;2023-05-29T00:17:34;102575.94;;;8.91;57.74
62725;BME280;49026;52.600;4.694;2023-05-29T00:20:01;102581.19;;;8.88;57.19
62725;BME280;49026;52.600;4.694;2023-05-29T00:22:32;102589.06;;;8.83;57.94
62725;BME280;49026;52.600;4.694;2023-05-29T00:24:57;102584.72;;;8.81;57.71
62725;BME280;49026;52.600;4.694;2023-05-29T00:27:22;102588.22;;;8.78;58.10
62725;BME280;49026;52.600;4.694;2023-05-29T00:29:50;102584.75;;;8.76;59.25
62725;BME280;49026;52.600;4.694;2023-05-29T00:32:18;102582.13;;;8.75;58.48
62725;BME280;49026;52.600;4.694;2023-05-29T00:34:46;102582.13;;;8.75;59.04
62725;BME280;49026;52.600;4.694;2023-05-29T00:37:11;102583.88;;;8.76;59.32
62725;BME280;49026;52.600;4.694;2023-05-29T00:39:36;102582.13;;;8.71;57.96
62725;BME280;49026;52.600;4.694;2023-05-29T00:42:01;102590.91;;;8.67;58.66
62725;BME280;49026;52.600;4.694;2023-05-29T00:44:29;102595.25;;;8.67;58.91
62725;BME280;49026;52.600;4.694;2023-05-29T00:46:55;102595.25;;;8.67;59.25
62725;BME280;49026;52.600;4.694;2023-05-29T00:49:22;102583.91;;;8.66;59.95
62725;BME280;49026;52.600;4.694;2023-05-29T00:51:50;102584.81;;;8.65;58.35
62725;BME280;49026;52.600;4.694;2023-05-29T00:54:20;102585.69;;;8.63;58.78
62725;BME280;49026;52.600;4.694;2023-05-29T00:56:47;102584.81;;;8.61;57.82
62725;BME280;49026;52.600;4.694;2023-05-29T00:59:12;102584.81;;;8.61;58.41
62725;BME280;49026;52.600;4.694;2023-05-29T01:01:38;102588.28;;;8.64;58.60
62725;BME280;49026;52.600;4.694;2023-05-29T01:04:05;102584.75;;;8.67;57.97
62725;BME280;49026;52.600;4.694;2023-05-29T01:06:35;102590.00;;;8.68;58.82
62725;BME280;49026;52.600;4.694;2023-05-29T01:09:00;102592.66;;;8.65;59.15
62725;BME280;49026;52.600;4.694;2023-05-29T01:11:57;102598.75;;;8.69;59.75
62725;BME280;49026;52.600;4.694;2023-05-29T01:20:36;102603.09;;;8.76;60.27
62725;BME280;49026;52.600;4.694;2023-05-29T01:28:56;102622.34;;;8.72;59.40
62725;BME280;49026;52.600;4.694;2023-05-29T01:31:25;102617.13;;;8.66;58.11
62725;BME280;49026;52.600;4.694;2023-05-29T01:33:55;102617.13;;;8.61;58.23
62725;BME280;49026;52.600;4.694;2023-05-29T01:36:21;102621.50;;;8.62;57.96
62725;BME280;49026;52.600;4.694;2023-05-29T01:38:47;102624.97;;;8.66;57.26
62725;BME280;49026;52.600;4.694;2023-05-29T01:41:14;102627.59;;;8.66;59.96
62725;BME280;49026;52.600;4.694;2023-05-29T01:43:41;102633.69;;;8.66;60.68
62725;BME280;49026;52.600;4.694;2023-05-29T01:46:09;102635.47;;;8.64;58.38
62725;BME280;49026;52.600;4.694;2023-05-29T01:48:35;102627.59;;;8.60;58.19
62725;BME280;49026;52.600;4.694;2023-05-29T01:51:00;102633.75;;;8.57;58.38
62725;BME280;49026;52.600;4.694;2023-05-29T01:53:28;102634.63;;;8.53;57.94
62725;BME280;49026;52.600;4.694;2023-05-29T01:55:53;102625.91;;;8.51;58.02
62725;BME280;49026;52.600;4.694;2023-05-29T01:58:20;102625.03;;;8.47;58.49
62725;BME280;49026;52.600;4.694;2023-05-29T02:00:49;102628.53;;;8.46;59.65
62725;BME280;49026;52.600;4.694;2023-05-29T02:03:14;102621.56;;;8.45;58.24
62725;BME280;49026;52.600;4.694;2023-05-29T02:05:39;102625.03;;;8.44;58.59
62725;BME280;49026;52.600;4.694;2023-05-29T02:08:05;102635.53;;;8.43;59.58
62725;BME280;49026;52.600;4.694;2023-05-29T02:10:30;102632.00;;;8.41;58.61
62725;BME280;49026;52.600;4.694;2023-05-29T02:12:57;102625.91;;;8.34;58.22
62725;BME280;49026;52.600;4.694;2023-05-29T02:15:22;102634.63;;;8.28;58.38
62725;BME280;49026;52.600;4.694;2023-05-29T02:17:47;102633.78;;;8.25;58.04
62725;BME280;49026;52.600;4.694;2023-05-29T02:20:15;102629.44;;;8.22;58.08
62725;BME280;49026;52.600;4.694;2023-05-29T02:22:42;102631.19;;;8.19;57.84
62725;BME280;49026;52.600;4.694;2023-05-29T02:25:08;102618.94;;;8.11;58.02
62725;BME280;49026;52.600;4.694;2023-05-29T02:27:33;102619.84;;;8.07;57.75
62725;BME280;49026;52.600;4.694;2023-05-29T02:30:01;102625.09;;;8.04;58.37
62725;BME280;49026;52.600;4.694;2023-05-29T02:32:26;102622.47;;;8.01;58.07
62725;BME280;49026;52.600;4.694;2023-05-29T02:34:53;102622.47;;;7.96;58.15
62725;BME280;49026;52.600;4.694;2023-05-29T02:37:19;102623.34;;;7.94;57.44
62725;BME280;49026;52.600;4.694;2023-05-29T02:39:44;102630.34;;;7.86;57.69
62725;BME280;49026;52.600;4.694;2023-05-29T02:42:11;102633.81;;;7.78;57.43
62725;BME280;49026;52.600;4.694;2023-05-29T02:44:37;102641.69;;;7.75;58.60
62725;BME280;49026;52.600;4.694;2023-05-29T02:47:02;102636.44;;;7.75;58.41
62725;BME280;49026;52.600;4.694;2023-05-29T02:49:27;102639.06;;;7.75;58.83
62725;BME280;49026;52.600;4.694;2023-05-29T02:51:53;102626.81;;;7.73;58.17
62725;BME280;49026;52.600;4.694;2023-05-29T02:54:23;102624.19;;;7.68;58.23
62725;BME280;49026;52.600;4.694;2023-05-29T02:56:48;102625.09;;;7.64;57.88
62725;BME280;49026;52.600;4.694;2023-05-29T02:59:14;102635.53;;;7.58;57.86
62725;BME280;49026;52.600;4.694;2023-05-29T03:01:39;102624.19;;;7.51;58.23
62725;BME280;49026;52.600;4.694;2023-05-29T03:04:05;102626.81;;;7.50;57.65
62725;BME280;49026;52.600;4.694;2023-05-29T03:06:33;102625.06;;;7.46;57.63
62725;BME280;49026;52.600;4.694;2023-05-29T03:08:58;102625.91;;;7.41;58.15
62725;BME280;49026;52.600;4.694;2023-05-29T03:11:26;102629.41;;;7.37;57.99
62725;BME280;49026;52.600;4.694;2023-05-29T03:13:51;102622.44;;;7.30;57.52
62725;BME280;49026;52.600;4.694;2023-05-29T03:16:16;102627.66;;;7.27;58.13
62725;BME280;49026;52.600;4.694;2023-05-29T03:18:42;102625.03;;;7.29;57.74
62725;BME280;49026;52.600;4.694;2023-05-29T03:21:10;102635.50;;;7.27;58.29
62725;BME280;49026;52.600;4.694;2023-05-29T03:23:35;102630.25;;;7.24;58.07
62725;BME280;49026;52.600;4.694;2023-05-29T03:26:02;102634.63;;;7.25;57.85
62725;BME280;49026;52.600;4.694;2023-05-29T03:28:30;102638.09;;;7.26;58.40
62725;BME280;49026;52.600;4.694;2023-05-29T03:30:56;102635.50;;;7.27;58.25
62725;BME280;49026;52.600;4.694;2023-05-29T03:33:21;102635.50;;;7.30;57.46
62725;BME280;49026;52.600;4.694;2023-05-29T03:35:46;102628.53;;;7.32;58.00
62725;BME280;49026;52.600;4.694;2023-05-29T03:38:12;102628.53;;;7.32;58.17
62725;BME280;49026;52.600;4.694;2023-05-29T03:40:37;102624.16;;;7.34;58.00
62725;BME280;49026;52.600;4.694;2023-05-29T03:43:03;102625.03;;;7.36;58.21
62725;BME280;49026;52.600;4.694;2023-05-29T03:45:28;102627.66;;;7.41;58.49
62725;BME280;49026;52.600;4.694;2023-05-29T03:47:53;102628.53;;;7.45;57.84
62725;BME280;49026;52.600;4.694;2023-05-29T03:50:19;102626.81;;;7.48;58.10
62725;BME280;49026;52.600;4.694;2023-05-29T03:52:44;102627.69;;;7.52;58.67
62725;BME280;49026;52.600;4.694;2023-05-29T03:55:10;102628.56;;;7.55;59.33
62725;BME280;49026;52.600;4.694;2023-05-29T03:57:39;102632.06;;;7.59;58.41
62725;BME280;49026;52.600;4.694;2023-05-29T04:00:07;102629.44;;;7.62;58.17
62725;BME280;49026;52.600;4.694;2023-05-29T04:02:35;102639.03;;;7.66;57.74
62725;BME280;49026;52.600;4.694;2023-05-29T04:05:03;102635.56;;;7.66;58.69
62725;BME280;49026;52.600;4.694;2023-05-29T04:07:28;102645.16;;;7.65;58.23
62725;BME280;49026;52.600;4.694;2023-05-29T04:09:54;102642.53;;;7.64;58.90
62725;BME280;49026;52.600;4.694;2023-05-29T04:12:19;102649.50;;;7.66;58.35
62725;BME280;49026;52.600;4.694;2023-05-29T04:14:44;102659.13;;;7.70;59.33
62725;BME280;49026;52.600;4.694;2023-05-29T04:17:10;102655.63;;;7.76;58.74
62725;BME280;49026;52.600;4.694;2023-05-29T04:19:35;102658.25;;;7.84;58.41
62725;BME280;49026;52.600;4.694;2023-05-29T04:22:00;102662.63;;;7.94;58.72
62725;BME280;49026;52.600;4.694;2023-05-29T04:24:28;102666.06;;;8.07;59.04
62725;BME280;49026;52.600;4.694;2023-05-29T04:26:53;102673.09;;;8.19;59.47
62725;BME280;49026;52.600;4.694;2023-05-29T04:29:18;102663.44;;;8.33;59.60
62725;BME280;49026;52.600;4.694;2023-05-29T04:31:44;102670.44;;;8.46;59.59
62725;BME280;49026;52.600;4.694;2023-05-29T04:34:09;102676.53;;;8.58;59.79
62725;BME280;49026;52.600;4.694;2023-05-29T04:36:41;102674.78;;;8.66;59.77
62725;BME280;49026;52.600;4.694;2023-05-29T04:39:11;102675.63;;;8.76;59.63
62725;BME280;49026;52.600;4.694;2023-05-29T04:41:36;102677.34;;;8.80;59.49
62725;BME280;49026;52.600;4.694;2023-05-29T04:44:03;102678.19;;;8.83;60.16
62725;BME280;49026;52.600;4.694;2023-05-29T04:46:29;102679.94;;;8.89;59.97
62725;BME280;49026;52.600;4.694;2023-05-29T04:48:56;102693.00;;;9.01;60.09
62725;BME280;49026;52.600;4.694;2023-05-29T04:51:24;102687.69;;;9.15;60.33
62725;BME280;49026;52.600;4.694;2023-05-29T04:53:50;102684.09;;;9.32;60.37
62725;BME280;49026;52.600;4.694;2023-05-29T04:56:20;102687.53;;;9.49;60.19
62725;BME280;49026;52.600;4.694;2023-05-29T04:58:47;102680.41;;;9.63;60.37
62725;BME280;49026;52.600;4.694;2023-05-29T05:01:12;102689.94;;;9.78;60.11
62725;BME280;49026;52.600;4.694;2023-05-29T05:03:43;102687.16;;;9.97;60.13
62725;BME280;49026;52.600;4.694;2023-05-29T05:06:09;102681.81;;;10.11;60.08
62725;BME280;49026;52.600;4.694;2023-05-29T05:08:35;102683.50;;;10.19;59.90
62725;BME280;49026;52.600;4.694;2023-05-29T05:11:00;102693.09;;;10.20;59.87
62725;BME280;49026;52.600;4.694;2023-05-29T05:13:26;102694.91;;;10.14;60.12
62725;BME280;49026;52.600;4.694;2023-05-29T05:15:52;102699.31;;;10.12;60.08
62725;BME280;49026;52.600;4.694;2023-05-29T05:18:17;102698.44;;;10.11;60.38
62725;BME280;49026;52.600;4.694;2023-05-29T05:20:43;102704.41;;;10.30;60.30
62725;BME280;49026;52.600;4.694;2023-05-29T05:23:09;102694.63;;;10.48;60.43
62725;BME280;49026;52.600;4.694;2023-05-29T05:25:37;102698.06;;;10.57;60.16
62725;BME280;49026;52.600;4.694;2023-05-29T05:28:04;102697.13;;;10.60;59.80
62725;BME280;49026;52.600;4.694;2023-05-29T05:30:29;102697.91;;;10.70;60.36
62725;BME280;49026;52.600;4.694;2023-05-29T05:32:57;102694.34;;;10.74;60.09
62725;BME280;49026;52.600;4.694;2023-05-29T05:35:24;102698.69;;;10.80;60.08
62725;BME280;49026;52.600;4.694;2023-05-29T05:37:50;102698.59;;;10.86;60.07
62725;BME280;49026;52.600;4.694;2023-05-29T05:40:15;102697.66;;;10.93;60.24
62725;BME280;49026;52.600;4.694;2023-05-29T05:42:43;102697.53;;;11.01;59.73
62725;BME280;49026;52.600;4.694;2023-05-29T05:45:11;102698.28;;;11.10;60.13
62725;BME280;49026;52.600;4.694;2023-05-29T05:47:36;102696.41;;;11.22;60.16
62725;BME280;49026;52.600;4.694;2023-05-29T05:50:02;102697.13;;;11.35;60.37
62725;BME280;49026;52.600;4.694;2023-05-29T05:52:27;102695.94;;;11.56;60.26
62725;BME280;49026;52.600;4.694;2023-05-29T05:54:56;102692.81;;;11.90;59.96
62725;BME280;49026;52.600;4.694;2023-05-29T05:57:22;102690.41;;;12.29;59.74
62725;BME280;49026;52.600;4.694;2023-05-29T05:59:47;102684.06;;;12.39;58.91
62725;BME280;49026;52.600;4.694;2023-05-29T06:02:13;102696.53;;;12.29;59.05
62725;BME280;49026;52.600;4.694;2023-05-29T06:04:38;102698.50;;;12.18;59.53
62725;BME280;49026;52.600;4.694;2023-05-29T06:07:06;102691.63;;;12.09;59.91
62725;BME280;49026;52.600;4.694;2023-05-29T06:09:31;102694.22;;;12.11;59.56
62725;BME280;49026;52.600;4.694;2023-05-29T06:11:56;102703.72;;;12.19;59.50
62725;BME280;49026;52.600;4.694;2023-05-29T06:14:23;102700.97;;;12.27;59.53
62725;BME280;49026;52.600;4.694;2023-05-29T06:16:48;102706.94;;;12.38;60.05
62725;BME280;49026;52.600;4.694;2023-05-29T06:19:13;102702.47;;;12.42;59.39
62725;BME280;49026;52.600;4.694;2023-05-29T06:21:40;102705.88;;;12.49;59.18
62725;BME280;49026;52.600;4.694;2023-05-29T06:24:05;102701.28;;;12.58;58.83
62725;BME280;49026;52.600;4.694;2023-05-29T06:26:30;102694.97;;;12.67;58.67
62725;BME280;49026;52.600;4.694;2023-05-29T06:28:55;102700.88;;;12.80;58.18
62725;BME280;49026;52.600;4.694;2023-05-29T06:31:21;102701.53;;;12.91;57.80
62725;BME280;49026;52.600;4.694;2023-05-29T06:33:46;102698.69;;;13.01;57.85
62725;BME280;49026;52.600;4.694;2023-05-29T06:36:11;102710.94;;;13.05;57.25
62725;BME280;49026;52.600;4.694;2023-05-29T06:38:39;102702.69;;;13.20;57.60
62725;BME280;49026;52.600;4.694;2023-05-29T06:41:05;102709.31;;;13.40;57.66
62725;BME280;49026;52.600;4.694;2023-05-29T06:43:30;102709.09;;;13.50;57.31
62725;BME280;49026;52.600;4.694;2023-05-29T06:45:58;102708.16;;;13.53;57.02
62725;BME280;49026;52.600;4.694;2023-05-29T06:48:24;102719.66;;;13.50;57.44
62725;BME280;49026;52.600;4.694;2023-05-29T06:50:51;102715.53;;;13.39;57.05
62725;BME280;49026;52.600;4.694;2023-05-29T06:53:16;102715.75;;;13.26;57.42
62725;BME280;49026;52.600;4.694;2023-05-29T06:55:42;102718.72;;;13.11;56.92
62725;BME280;49026;52.600;4.694;2023-05-29T06:58:09;102708.38;;;13.02;57.68
62725;BME280;49026;52.600;4.694;2023-05-29T07:00:35;102719.81;;;13.01;57.72
62725;BME280;49026;52.600;4.694;2023-05-29T07:03:00;102720.56;;;13.07;57.77
62725;BME280;49026;52.600;4.694;2023-05-29T07:05:26;102712.78;;;13.00;57.38
62725;BME280;49026;52.600;4.694;2023-05-29T07:07:52;102703.97;;;13.01;57.86
62725;BME280;49026;52.600;4.694;2023-05-29T07:10:19;102733.00;;;13.01;57.00
62725;BME280;49026;52.600;4.694;2023-05-29T07:12:47;102731.94;;;13.09;57.45
62725;BME280;49026;52.600;4.694;2023-05-29T07:15:13;102732.53;;;13.24;57.95
62725;BME280;49026;52.600;4.694;2023-05-29T07:17:38;102736.59;;;13.42;57.11
62725;BME280;49026;52.600;4.694;2023-05-29T07:20:06;102731.19;;;13.46;56.21
62725;BME280;49026;52.600;4.694;2023-05-29T07:22:33;102732.00;;;13.50;56.90
62725;BME280;49026;52.600;4.694;2023-05-29T07:24:59;102737.28;;;13.50;56.07
62725;BME280;49026;52.600;4.694;2023-05-29T07:27:25;102745.13;;;13.53;56.15
62725;BME280;49026;52.600;4.694;2023-05-29T07:29:52;102747.41;;;13.70;56.64
62725;BME280;49026;52.600;4.694;2023-05-29T07:32:18;102748.69;;;13.89;56.91
62725;BME280;49026;52.600;4.694;2023-05-29T07:34:43;102750.88;;;14.09;56.59
62725;BME280;49026;52.600;4.694;2023-05-29T07:37:08;102760.75;;;14.37;57.94
62725;BME280;49026;52.600;4.694;2023-05-29T07:39:34;102751.25;;;14.64;56.87
62725;BME280;49026;52.600;4.694;2023-05-29T07:42:01;102746.72;;;14.70;57.07
62725;BME280;49026;52.600;4.694;2023-05-29T07:44:26;102750.13;;;14.73;56.43
62725;BME280;49026;52.600;4.694;2023-05-29T07:46:51;102759.03;;;14.71;58.14
62725;BME280;49026;52.600;4.694;2023-05-29T07:49:20;102761.72;;;14.69;56.09
62725;BME280;49026;52.600;4.694;2023-05-29T07:51:45;102767.31;;;14.57;56.72
62725;BME280;49026;52.600;4.694;2023-05-29T07:54:11;102760.28;;;14.56;56.02
62725;BME280;49026;52.600;4.694;2023-05-29T07:56:39;102766.94;;;14.36;55.24
62725;BME280;49026;52.600;4.694;2023-05-29T07:59:05;102765.94;;;14.42;55.96
62725;BME280;49026;52.600;4.694;2023-05-29T08:01:32;102757.38;;;14.67;55.97
62725;BME280;49026;52.600;4.694;2023-05-29T08:03:57;102760.13;;;14.95;55.70
62725;BME280;49026;52.600;4.694;2023-05-29T08:06:22;102763.63;;;14.97;55.02
62725;BME280;49026;52.600;4.694;2023-05-29T08:08:50;102762.88;;;14.59;54.79
62725;BME280;49026;52.600;4.694;2023-05-29T08:11:17;102759.88;;;14.38;55.56
62725;BME280;49026;52.600;4.694;2023-05-29T08:13:45;102756.66;;;14.25;55.96
62725;BME280;49026;52.600;4.694;2023-05-29T08:16:10;102766.72;;;14.09;55.41
62725;BME280;49026;52.600;4.694;2023-05-29T08:18:40;102763.34;;;14.03;52.67
62725;BME280;49026;52.600;4.694;2023-05-29T08:21:06;102755.88;;;14.22;55.91
62725;BME280;49026;52.600;4.694;2023-05-29T08:23:31;102766.13;;;14.34;55.51
62725;BME280;49026;52.600;4.694;2023-05-29T08:25:57;102755.63;;;14.31;56.00
62725;BME280;49026;52.600;4.694;2023-05-29T08:28:22;102768.00;;;14.29;55.61
62725;BME280;49026;52.600;4.694;2023-05-29T08:30:47;102768.00;;;14.29;56.16
62725;BME280;49026;52.600;4.694;2023-05-29T08:33:13;102764.13;;;14.44;56.42
62725;BME280;49026;52.600;4.694;2023-05-29T08:35:40;102767.16;;;14.63;56.54
62725;BME280;49026;52.600;4.694;2023-05-29T08:38:05;102769.78;;;14.64;56.96
62725;BME280;49026;52.600;4.694;2023-05-29T08:40:31;102762.22;;;14.84;57.28
62725;BME280;49026;52.600;4.694;2023-05-29T08:42:59;102769.28;;;14.83;56.85
62725;BME280;49026;52.600;4.694;2023-05-29T08:45:28;102764.13;;;14.78;56.83
62725;BME280;49026;52.600;4.694;2023-05-29T08:47:54;102761.31;;;14.85;55.93
62725;BME280;49026;52.600;4.694;2023-05-29T08:50:23;102758.22;;;15.00;56.31
62725;BME280;49026;52.600;4.694;2023-05-29T08:52:48;102761.56;;;15.07;56.61
62725;BME280;49026;52.600;4.694;2023-05-29T08:55:15;102763.41;;;15.05;55.33
62725;BME280;49026;52.600;4.694;2023-05-29T08:57:43;102751.09;;;15.04;55.38
62725;BME280;49026;52.600;4.694;2023-05-29T09:00:11;102763.91;;;15.17;55.57
62725;BME280;49026;52.600;4.694;2023-05-29T09:02:42;102745.75;;;15.35;55.16
62725;BME280;49026;52.600;4.694;2023-05-29T09:05:11;102770.31;;;15.40;55.90
62725;BME280;49026;52.600;4.694;2023-05-29T09:07:37;102772.81;;;15.45;55.94
62725;BME280;49026;52.600;4.694;2023-05-29T09:10:10;102771.97;;;15.44;56.13
62725;BME280;49026;52.600;4.694;2023-05-29T09:12:35;102768.03;;;15.28;55.80
62725;BME280;49026;52.600;4.694;2023-05-29T09:15:01;102778.09;;;15.15;56.03
62725;BME280;49026;52.600;4.694;2023-05-29T09:17:33;102770.63;;;15.29;56.22
62725;BME280;49026;52.600;4.694;2023-05-29T09:19:58;102771.31;;;15.66;57.25
62725;BME280;49026;52.600;4.694;2023-05-29T09:22:24;102761.78;;;15.88;55.76
62725;BME280;49026;52.600;4.694;2023-05-29T09:24:51;102775.09;;;15.87;55.48
62725;BME280;49026;52.600;4.694;2023-05-29T09:27:26;102760.06;;;15.87;55.87
62725;BME280;49026;52.600;4.694;2023-05-29T09:29:51;102776.06;;;15.84;56.00
62725;BME280;49026;52.600;4.694;2023-05-29T09:32:18;102772.41;;;15.88;57.21
62725;BME280;49026;52.600;4.694;2023-05-29T09:34:44;102753.50;;;15.99;56.60
62725;BME280;49026;52.600;4.694;2023-05-29T09:37:10;102767.69;;;15.98;55.10
62725;BME280;49026;52.600;4.694;2023-05-29T09:39:49;102773.25;;;16.17;55.77
62725;BME280;49026;52.600;4.694;2023-05-29T09:42:17;102773.25;;;16.17;54.06
62725;BME280;49026;52.600;4.694;2023-05-29T09:44:45;102778.56;;;16.17;55.49
62725;BME280;49026;52.600;4.694;2023-05-29T09:47:21;102767.09;;;16.42;54.32
62725;BME280;49026;52.600;4.694;2023-05-29T09:49:50;102776.34;;;16.57;54.79
62725;BME280;49026;52.600;4.694;2023-05-29T09:52:21;102777.63;;;16.70;54.81
62725;BME280;49026;52.600;4.694;2023-05-29T09:54:47;102778.56;;;16.69;54.53
62725;BME280;49026;52.600;4.694;2023-05-29T09:57:13;102788.03;;;16.51;54.39
62725;BME280;49026;52.600;4.694;2023-05-29T09:59:45;102766.72;;;16.27;55.09
62725;BME280;49026;52.600;4.694;2023-05-29T10:02:16;102767.09;;;16.42;56.19
62725;BME280;49026;52.600;4.694;2023-05-29T10:04:41;102763.94;;;16.82;55.66
62725;BME280;49026;52.600;4.694;2023-05-29T10:07:31;102765.66;;;17.09;53.48
62725;BME280;49026;52.600;4.694;2023-05-29T10:10:03;102769.69;;;16.95;54.19
62725;BME280;49026;52.600;4.694;2023-05-29T10:12:29;102766.41;;;16.89;53.57
62725;BME280;49026;52.600;4.694;2023-05-29T10:14:57;102767.50;;;16.81;52.04
62725;BME280;49026;52.600;4.694;2023-05-29T10:17:32;102761.13;;;16.87;52.76
62725;BME280;49026;52.600;4.694;2023-05-29T10:20:01;102765.22;;;16.97;53.11
62725;BME280;49026;52.600;4.694;2023-05-29T10:22:31;102767.63;;;17.27;54.78
62725;BME280;49026;52.600;4.694;2023-05-29T10:24:57;102758.41;;;17.37;53.35
62725;BME280;49026;52.600;4.694;2023-05-29T10:27:23;102770.13;;;17.32;53.07
62725;BME280;49026;52.600;4.694;2023-05-29T10:29:52;102766.56;;;17.09;52.49
62725;BME280;49026;52.600;4.694;2023-05-29T10:35:17;102764.81;;;17.32;53.29
62725;BME280;49026;52.600;4.694;2023-05-29T10:37:52;102758.41;;;17.37;51.43
62725;BME280;49026;52.600;4.694;2023-05-29T10:40:23;102751.50;;;17.55;52.61
62725;BME280;49026;52.600;4.694;2023-05-29T10:42:51;102753.13;;;17.82;52.48
62725;BME280;49026;52.600;4.694;2023-05-29T10:47:54;102740.56;;;18.07;51.33
62725;BME280;49026;52.600;4.694;2023-05-29T10:50:55;102762.00;;;17.81;46.00
62725;BME280;49026;52.600;4.694;2023-05-29T10:53:25;102744.00;;;17.89;53.61
62725;BME280;49026;52.600;4.694;2023-05-29T10:55:52;102757.34;;;18.09;53.03
62725;BME280;49026;52.600;4.694;2023-05-29T10:58:20;102760.78;;;18.33;51.22
62725;BME280;49026;52.600;4.694;2023-05-29T11:00:47;102764.16;;;18.37;52.60
62725;BME280;49026;52.600;4.694;2023-05-29T11:03:24;102767.00;;;18.32;52.69
62725;BME280;49026;52.600;4.694;2023-05-29T11:06:01;102754.88;;;18.05;51.40
62725;BME280;49026;52.600;4.694;2023-05-29T11:08:43;102763.44;;;17.91;51.49
62725;BME280;49026;52.600;4.694;2023-05-29T11:11:13;102756.69;;;17.81;52.49
62725;BME280;49026;52.600;4.694;2023-05-29T11:13:49;102764.00;;;17.75;51.22
62725;BME280;49026;52.600;4.694;2023-05-29T11:18:53;102753.47;;;17.50;51.02
62725;BME280;49026;52.600;4.694;2023-05-29T11:21:46;102742.94;;;17.47;51.79
62725;BME280;49026;52.600;4.694;2023-05-29T11:24:22;102760.44;;;17.31;51.40
62725;BME280;49026;52.600;4.694;2023-05-29T11:26:50;102760.72;;;17.23;50.04
62725;BME280;49026;52.600;4.694;2023-05-29T11:29:24;102754.66;;;17.19;50.39
62725;BME280;49026;52.600;4.694;2023-05-29T11:31:55;102760.56;;;17.28;50.72
62725;BME280;49026;52.600;4.694;2023-05-29T11:34:23;102755.03;;;17.32;51.38
62725;BME280;49026;52.600;4.694;2023-05-29T11:36:57;102761.69;;;17.44;52.03
62725;BME280;49026;52.600;4.694;2023-05-29T11:39:23;102767.53;;;17.30;51.33
62725;BME280;49026;52.600;4.694;2023-05-29T11:41:52;102753.97;;;17.14;51.71
62725;BME280;49026;52.600;4.694;2023-05-29T11:44:18;102774.00;;;16.99;51.04
62725;BME280;49026;52.600;4.694;2023-05-29T11:46:44;102777.72;;;16.94;50.96
62725;BME280;49026;52.600;4.694;2023-05-29T11:49:09;102779.13;;;17.04;52.09
62725;BME280;49026;52.600;4.694;2023-05-29T11:51:35;102785.78;;;17.16;51.22
62725;BME280;49026;52.600;4.694;2023-05-29T11:54:00;102784.97;;;17.37;51.59
62725;BME280;49026;52.600;4.694;2023-05-29T11:56:26;102781.84;;;17.26;51.15
62725;BME280;49026;52.600;4.694;2023-05-29T11:58:52;102779.88;;;17.08;51.65
62725;BME280;49026;52.600;4.694;2023-05-29T12:01:21;102778.72;;;17.15;51.80
62725;BME280;49026;52.600;4.694;2023-05-29T12:03:52;102784.47;;;17.28;52.00
62725;BME280;49026;52.600;4.694;2023-05-29T12:06:36;102779.69;;;17.59;51.79
62725;BME280;49026;52.600;4.694;2023-05-29T12:09:05;102782.59;;;17.75;51.95
62725;BME280;49026;52.600;4.694;2023-05-29T12:11:31;102778.38;;;17.93;51.80
62725;BME280;49026;52.600;4.694;2023-05-29T12:14:00;102791.38;;;18.01;49.79
62725;BME280;49026;52.600;4.694;2023-05-29T12:16:29;102765.50;;;17.83;49.54
62725;BME280;49026;52.600;4.694;2023-05-29T12:18:55;102780.50;;;17.84;46.83
62725;BME280;49026;52.600;4.694;2023-05-29T12:21:21;102773.56;;;18.03;50.75
62725;BME280;49026;52.600;4.694;2023-05-29T12:23:47;102767.59;;;18.19;49.76
62725;BME280;49026;52.600;4.694;2023-05-29T12:26:12;102762.88;;;18.25;50.12
62725;BME280;49026;52.600;4.694;2023-05-29T12:28:46;102786.78;;;18.27;46.64
62725;BME280;49026;52.600;4.694;2023-05-29T12:31:14;102762.25;;;17.98;49.00
62725;BME280;49026;52.600;4.694;2023-05-29T12:33:53;102769.44;;;17.72;49.41
62725;BME280;49026;52.600;4.694;2023-05-29T12:36:19;102755.28;;;17.50;49.96
62725;BME280;49026;52.600;4.694;2023-05-29T12:38:49;102762.44;;;17.48;50.15
62725;BME280;49026;52.600;4.694;2023-05-29T12:41:29;102765.66;;;17.56;48.26
62725;BME280;49026;52.600;4.694;2023-05-29T12:43:56;102760.34;;;17.56;50.73
62725;BME280;49026;52.600;4.694;2023-05-29T12:46:25;102761.09;;;17.82;50.51
62725;BME280;49026;52.600;4.694;2023-05-29T12:48:53;102761.91;;;18.06;50.74
62725;BME280;49026;52.600;4.694;2023-05-29T12:51:26;102729.00;;;18.08;49.87
62725;BME280;49026;52.600;4.694;2023-05-29T12:53:51;102771.56;;;18.08;48.61
62725;BME280;49026;52.600;4.694;2023-05-29T12:56:20;102761.84;;;18.07;49.29
62725;BME280;49026;52.600;4.694;2023-05-29T12:58:47;102758.81;;;18.17;49.06
62725;BME280;49026;52.600;4.694;2023-05-29T13:01:15;102759.19;;;18.07;50.17
62725;BME280;49026;52.600;4.694;2023-05-29T13:03:41;102759.25;;;17.84;49.29
62725;BME280;49026;52.600;4.694;2023-05-29T13:06:06;102757.94;;;17.72;49.38
62725;BME280;49026;52.600;4.694;2023-05-29T13:08:32;102764.47;;;17.87;48.62
62725;BME280;49026;52.600;4.694;2023-05-29T13:10:57;102768.41;;;17.99;48.54
62725;BME280;49026;52.600;4.694;2023-05-29T13:13:25;102765.59;;;18.03;48.90